sensor_id;sensor_type;location;lat;lon;timestamp;P1;durP1;ratioP1;P2;durP2;ratioP2
68523;SDS011;55524;51.380;13.372;2023-07-13T00:00:07;3.10;;;1.30;;
68523;SDS011;55524;51.380;13.372;2023-07-13T00:02:35;3.47;;;1.27;;
68523;SDS011;55524;51.380;13.372;2023-07-13T00:05:01;4.38;;;1.35;;
68523;SDS011;55524;51.380;13.372;2023-07-13T00:07:28;4.43;;;1.30;;
68523;SDS011;55524;51.380;13.372;2023-07-13T00:09:58;2.38;;;1.30;;
68523;SDS011;55524;51.380;13.372;2023-07-13T00:15:03;1.40;;;1.30;;
68523;SDS011;55524;51.380;13.372;2023-07-13T00:17:32;2.05;;;1.50;;
68523;SDS011;55524;51.380;13.372;2023-07-13T00:19:58;3.78;;;1.40;;
68523;SDS011;55524;51.380;13.372;2023-07-13T00:22:25;2.20;;;1.50;;
68523;SDS011;55524;51.380;13.372;2023-07-13T00:24:52;2.15;;;1.52;;
68523;SDS011;55524;51.380;13.372;2023-07-13T00:27:21;1.58;;;1.48;;
68523;SDS011;55524;51.380;13.372;2023-07-13T00:29:47;3.17;;;2.03;;
68523;SDS011;55524;51.380;13.372;2023-07-13T00:32:14;2.35;;;1.55;;
68523;SDS011;55524;51.380;13.372;2023-07-13T00:34:40;2.53;;;1.70;;
68523;SDS011;55524;51.380;13.372;2023-07-13T00:37:07;2.45;;;1.90;;
68523;SDS011;55524;51.380;13.372;2023-07-13T00:39:33;1.80;;;1.70;;
68523;SDS011;55524;51.380;13.372;2023-07-13T00:42:01;2.58;;;1.90;;
68523;SDS011;55524;51.380;13.372;2023-07-13T00:44:29;2.53;;;2.00;;
68523;SDS011;55524;51.380;13.372;2023-07-13T00:46:56;2.00;;;1.90;;
68523;SDS011;55524;51.380;13.372;2023-07-13T00:49:24;2.60;;;1.75;;
68523;SDS011;55524;51.380;13.372;2023-07-13T00:52:04;3.33;;;1.75;;
68523;SDS011;55524;51.380;13.372;2023-07-13T00:54:37;4.70;;;1.85;;
68523;SDS011;55524;51.380;13.372;2023-07-13T00:57:11;2.85;;;1.75;;
68523;SDS011;55524;51.380;13.372;2023-07-13T00:59:42;4.78;;;1.70;;
68523;SDS011;55524;51.380;13.372;2023-07-13T01:02:11;4.20;;;1.60;;
68523;SDS011;55524;51.380;13.372;2023-07-13T01:04:37;4.40;;;1.63;;
68523;SDS011;55524;51.380;13.372;2023-07-13T01:07:04;1.98;;;1.70;;
68523;SDS011;55524;51.380;13.372;2023-07-13T01:09:32;3.50;;;1.55;;
68523;SDS011;55524;51.380;13.372;2023-07-13T01:11:58;4.75;;;1.48;;
68523;SDS011;55524;51.380;13.372;2023-07-13T01:14:25;3.17;;;1.48;;
68523;SDS011;55524;51.380;13.372;2023-07-13T01:16:51;5.78;;;1.67;;
68523;SDS011;55524;51.380;13.372;2023-07-13T01:19:22;5.65;;;1.48;;
68523;SDS011;55524;51.380;13.372;2023-07-13T01:21:55;2.80;;;1.30;;
68523;SDS011;55524;51.380;13.372;2023-07-13T01:24:21;2.38;;;1.48;;
68523;SDS011;55524;51.380;13.372;2023-07-13T01:26:47;4.40;;;1.67;;
68523;SDS011;55524;51.380;13.372;2023-07-13T01:29:13;5.60;;;1.50;;
68523;SDS011;55524;51.380;13.372;2023-07-13T01:31:40;2.20;;;1.50;;
68523;SDS011;55524;51.380;13.372;2023-07-13T01:34:06;2.92;;;1.30;;
68523;SDS011;55524;51.380;13.372;2023-07-13T01:36:33;4.10;;;1.42;;
68523;SDS011;55524;51.380;13.372;2023-07-13T01:38:59;3.92;;;1.50;;
68523;SDS011;55524;51.380;13.372;2023-07-13T01:41:25;1.95;;;1.40;;
68523;SDS011;55524;51.380;13.372;2023-07-13T01:43:52;3.83;;;1.50;;
68523;SDS011;55524;51.380;13.372;2023-07-13T01:46:18;3.42;;;1.40;;
68523;SDS011;55524;51.380;13.372;2023-07-13T01:48:44;3.40;;;1.65;;
68523;SDS011;55524;51.380;13.372;2023-07-13T01:51:10;4.00;;;1.60;;
68523;SDS011;55524;51.380;13.372;2023-07-13T01:53:37;1.58;;;1.48;;
68523;SDS011;55524;51.380;13.372;2023-07-13T01:56:03;4.53;;;1.50;;
68523;SDS011;55524;51.380;13.372;2023-07-13T01:58:30;3.13;;;1.58;;
68523;SDS011;55524;51.380;13.372;2023-07-13T02:00:56;4.90;;;1.60;;
68523;SDS011;55524;51.380;13.372;2023-07-13T02:03:22;2.58;;;1.35;;
68523;SDS011;55524;51.380;13.372;2023-07-13T02:05:48;1.70;;;1.38;;
68523;SDS011;55524;51.380;13.372;2023-07-13T02:08:15;3.88;;;1.55;;
68523;SDS011;55524;51.380;13.372;2023-07-13T02:10:41;2.40;;;1.70;;
68523;SDS011;55524;51.380;13.372;2023-07-13T02:13:07;2.95;;;1.50;;
68523;SDS011;55524;51.380;13.372;2023-07-13T02:15:34;2.03;;;1.50;;
68523;SDS011;55524;51.380;13.372;2023-07-13T02:18:03;3.58;;;1.52;;
68523;SDS011;55524;51.380;13.372;2023-07-13T02:20:30;4.00;;;1.80;;
68523;SDS011;55524;51.380;13.372;2023-07-13T02:22:56;3.88;;;1.73;;
68523;SDS011;55524;51.380;13.372;2023-07-13T02:25:22;2.22;;;1.30;;
68523;SDS011;55524;51.380;13.372;2023-07-13T02:27:50;5.80;;;1.85;;
68523;SDS011;55524;51.380;13.372;2023-07-13T02:30:16;3.47;;;1.60;;
68523;SDS011;55524;51.380;13.372;2023-07-13T02:32:42;4.53;;;1.58;;
68523;SDS011;55524;51.380;13.372;2023-07-13T02:35:09;4.60;;;1.75;;
68523;SDS011;55524;51.380;13.372;2023-07-13T02:37:36;1.73;;;1.63;;
68523;SDS011;55524;51.380;13.372;2023-07-13T02:40:02;2.30;;;1.50;;
68523;SDS011;55524;51.380;13.372;2023-07-13T02:42:33;4.90;;;1.60;;
68523;SDS011;55524;51.380;13.372;2023-07-13T02:44:59;2.40;;;1.70;;
68523;SDS011;55524;51.380;13.372;2023-07-13T02:47:26;1.88;;;1.52;;
68523;SDS011;55524;51.380;13.372;2023-07-13T02:49:52;3.83;;;1.50;;
68523;SDS011;55524;51.380;13.372;2023-07-13T02:52:18;1.75;;;1.65;;
68523;SDS011;55524;51.380;13.372;2023-07-13T02:54:44;4.15;;;1.83;;
68523;SDS011;55524;51.380;13.372;2023-07-13T02:57:11;4.22;;;1.80;;
68523;SDS011;55524;51.380;13.372;2023-07-13T02:59:37;3.83;;;1.92;;
68523;SDS011;55524;51.380;13.372;2023-07-13T03:02:03;1.88;;;1.50;;
68523;SDS011;55524;51.380;13.372;2023-07-13T03:04:30;2.90;;;1.80;;
68523;SDS011;55524;51.380;13.372;2023-07-13T03:06:56;2.80;;;1.80;;
68523;SDS011;55524;51.380;13.372;2023-07-13T03:09:23;4.40;;;1.77;;
68523;SDS011;55524;51.380;13.372;2023-07-13T03:11:52;2.47;;;1.70;;
68523;SDS011;55524;51.380;13.372;2023-07-13T03:14:20;3.03;;;1.83;;
68523;SDS011;55524;51.380;13.372;2023-07-13T03:16:49;2.13;;;1.70;;
68523;SDS011;55524;51.380;13.372;2023-07-13T03:19:17;2.83;;;1.77;;
68523;SDS011;55524;51.380;13.372;2023-07-13T03:21:44;1.92;;;1.50;;
68523;SDS011;55524;51.380;13.372;2023-07-13T03:24:10;2.90;;;1.60;;
68523;SDS011;55524;51.380;13.372;2023-07-13T03:26:37;2.05;;;1.55;;
68523;SDS011;55524;51.380;13.372;2023-07-13T03:29:03;4.88;;;2.00;;
68523;SDS011;55524;51.380;13.372;2023-07-13T03:31:34;5.15;;;2.22;;
68523;SDS011;55524;51.380;13.372;2023-07-13T03:34:01;5.55;;;1.90;;
68523;SDS011;55524;51.380;13.372;2023-07-13T03:36:29;3.05;;;1.90;;
68523;SDS011;55524;51.380;13.372;2023-07-13T03:38:57;3.08;;;1.80;;
68523;SDS011;55524;51.380;13.372;2023-07-13T03:41:25;5.22;;;1.85;;
68523;SDS011;55524;51.380;13.372;2023-07-13T03:43:51;4.85;;;1.90;;
68523;SDS011;55524;51.380;13.372;2023-07-13T03:46:18;3.83;;;1.90;;
68523;SDS011;55524;51.380;13.372;2023-07-13T03:48:46;2.05;;;1.88;;
68523;SDS011;55524;51.380;13.372;2023-07-13T03:51:13;2.97;;;1.88;;
68523;SDS011;55524;51.380;13.372;2023-07-13T03:53:43;19.58;;;2.28;;
68523;SDS011;55524;51.380;13.372;2023-07-13T03:56:10;2.30;;;1.85;;
68523;SDS011;55524;51.380;13.372;2023-07-13T03:58:39;3.15;;;1.77;;
68523;SDS011;55524;51.380;13.372;2023-07-13T04:01:08;4.70;;;2.00;;
68523;SDS011;55524;51.380;13.372;2023-07-13T04:03:35;3.70;;;2.22;;
68523;SDS011;55524;51.380;13.372;2023-07-13T04:06:03;2.72;;;2.10;;
68523;SDS011;55524;51.380;13.372;2023-07-13T04:08:32;3.53;;;2.10;;
68523;SDS011;55524;51.380;13.372;2023-07-13T04:11:00;2.70;;;1.98;;
68523;SDS011;55524;51.380;13.372;2023-07-13T04:13:27;2.25;;;2.05;;
68523;SDS011;55524;51.380;13.372;2023-07-13T04:15:54;4.28;;;2.13;;
68523;SDS011;55524;51.380;13.372;2023-07-13T04:18:20;4.93;;;2.00;;
68523;SDS011;55524;51.380;13.372;2023-07-13T04:20:47;3.30;;;2.10;;
68523;SDS011;55524;51.380;13.372;2023-07-13T04:23:15;3.13;;;2.10;;
68523;SDS011;55524;51.380;13.372;2023-07-13T04:25:49;3.00;;;2.15;;
68523;SDS011;55524;51.380;13.372;2023-07-13T04:28:24;4.22;;;2.05;;
68523;SDS011;55524;51.380;13.372;2023-07-13T04:30:51;3.67;;;2.17;;
68523;SDS011;55524;51.380;13.372;2023-07-13T04:33:18;6.90;;;2.08;;
68523;SDS011;55524;51.380;13.372;2023-07-13T04:35:49;4.40;;;2.05;;
68523;SDS011;55524;51.380;13.372;2023-07-13T04:38:19;2.05;;;1.88;;
68523;SDS011;55524;51.380;13.372;2023-07-13T04:40:46;2.83;;;1.80;;
68523;SDS011;55524;51.380;13.372;2023-07-13T04:43:13;3.72;;;1.90;;
68523;SDS011;55524;51.380;13.372;2023-07-13T04:45:40;2.88;;;1.90;;
68523;SDS011;55524;51.380;13.372;2023-07-13T04:48:06;3.03;;;1.92;;
68523;SDS011;55524;51.380;13.372;2023-07-13T04:50:35;2.45;;;2.00;;
68523;SDS011;55524;51.380;13.372;2023-07-13T04:53:02;5.15;;;2.20;;
68523;SDS011;55524;51.380;13.372;2023-07-13T04:55:30;3.25;;;2.13;;
68523;SDS011;55524;51.380;13.372;2023-07-13T04:57:57;3.15;;;2.22;;
68523;SDS011;55524;51.380;13.372;2023-07-13T05:00:24;2.90;;;2.30;;
68523;SDS011;55524;51.380;13.372;2023-07-13T05:02:51;3.00;;;1.90;;
68523;SDS011;55524;51.380;13.372;2023-07-13T05:05:19;5.63;;;2.10;;
68523;SDS011;55524;51.380;13.372;2023-07-13T05:07:45;2.15;;;1.63;;
68523;SDS011;55524;51.380;13.372;2023-07-13T05:10:12;2.30;;;2.00;;
68523;SDS011;55524;51.380;13.372;2023-07-13T05:12:38;2.30;;;1.88;;
68523;SDS011;55524;51.380;13.372;2023-07-13T05:15:05;4.10;;;2.13;;
68523;SDS011;55524;51.380;13.372;2023-07-13T05:17:32;4.30;;;2.17;;
68523;SDS011;55524;51.380;13.372;2023-07-13T05:19:58;3.25;;;2.08;;
68523;SDS011;55524;51.380;13.372;2023-07-13T05:22:24;6.43;;;2.13;;
68523;SDS011;55524;51.380;13.372;2023-07-13T05:24:51;2.42;;;2.17;;
68523;SDS011;55524;51.380;13.372;2023-07-13T05:27:17;2.30;;;2.10;;
68523;SDS011;55524;51.380;13.372;2023-07-13T05:29:43;31.55;;;4.63;;
68523;SDS011;55524;51.380;13.372;2023-07-13T05:32:10;48.35;;;6.45;;
68523;SDS011;55524;51.380;13.372;2023-07-13T05:34:36;31.63;;;3.92;;
68523;SDS011;55524;51.380;13.372;2023-07-13T05:37:02;13.38;;;2.80;;
68523;SDS011;55524;51.380;13.372;2023-07-13T05:39:29;20.88;;;3.70;;
68523;SDS011;55524;51.380;13.372;2023-07-13T05:41:55;5.55;;;2.35;;
68523;SDS011;55524;51.380;13.372;2023-07-13T05:44:21;51.70;;;6.80;;
68523;SDS011;55524;51.380;13.372;2023-07-13T05:46:48;13.27;;;2.80;;
68523;SDS011;55524;51.380;13.372;2023-07-13T05:49:14;33.25;;;4.90;;
68523;SDS011;55524;51.380;13.372;2023-07-13T05:51:41;23.27;;;3.13;;
68523;SDS011;55524;51.380;13.372;2023-07-13T05:54:07;4.50;;;2.20;;
68523;SDS011;55524;51.380;13.372;2023-07-13T05:56:33;18.13;;;2.88;;
68523;SDS011;55524;51.380;13.372;2023-07-13T05:58:59;8.02;;;1.95;;
68523;SDS011;55524;51.380;13.372;2023-07-13T06:01:26;3.60;;;1.80;;
68523;SDS011;55524;51.380;13.372;2023-07-13T06:03:52;6.88;;;1.88;;
68523;SDS011;55524;51.380;13.372;2023-07-13T06:06:18;3.70;;;1.70;;
68523;SDS011;55524;51.380;13.372;2023-07-13T06:08:45;11.35;;;2.22;;
68523;SDS011;55524;51.380;13.372;2023-07-13T06:11:18;12.77;;;2.42;;
68523;SDS011;55524;51.380;13.372;2023-07-13T06:13:46;63.88;;;5.80;;
68523;SDS011;55524;51.380;13.372;2023-07-13T06:16:13;3.75;;;1.50;;
68523;SDS011;55524;51.380;13.372;2023-07-13T06:18:40;45.13;;;5.35;;
68523;SDS011;55524;51.380;13.372;2023-07-13T06:21:17;4.43;;;1.50;;
68523;SDS011;55524;51.380;13.372;2023-07-13T06:23:46;7.25;;;1.88;;
68523;SDS011;55524;51.380;13.372;2023-07-13T06:26:14;6.22;;;1.50;;
68523;SDS011;55524;51.380;13.372;2023-07-13T06:28:41;12.63;;;2.03;;
68523;SDS011;55524;51.380;13.372;2023-07-13T06:31:09;6.07;;;1.58;;
68523;SDS011;55524;51.380;13.372;2023-07-13T06:33:37;3.63;;;1.30;;
68523;SDS011;55524;51.380;13.372;2023-07-13T06:36:04;5.68;;;1.50;;
68523;SDS011;55524;51.380;13.372;2023-07-13T06:38:32;8.13;;;1.83;;
68523;SDS011;55524;51.380;13.372;2023-07-13T06:40:59;8.95;;;1.65;;
68523;SDS011;55524;51.380;13.372;2023-07-13T06:43:25;16.13;;;2.63;;
68523;SDS011;55524;51.380;13.372;2023-07-13T06:45:54;1.92;;;1.25;;
68523;SDS011;55524;51.380;13.372;2023-07-13T06:48:21;3.92;;;2.05;;
68523;SDS011;55524;51.380;13.372;2023-07-13T06:50:48;7.18;;;1.85;;
68523;SDS011;55524;51.380;13.372;2023-07-13T06:53:17;19.63;;;2.58;;
68523;SDS011;55524;51.380;13.372;2023-07-13T06:55:44;11.48;;;2.20;;
68523;SDS011;55524;51.380;13.372;2023-07-13T06:58:11;4.90;;;1.30;;
68523;SDS011;55524;51.380;13.372;2023-07-13T07:00:38;4.72;;;1.50;;
68523;SDS011;55524;51.380;13.372;2023-07-13T07:03:05;4.47;;;1.55;;
68523;SDS011;55524;51.380;13.372;2023-07-13T07:05:34;3.20;;;1.30;;
68523;SDS011;55524;51.380;13.372;2023-07-13T07:08:00;2.05;;;1.25;;
68523;SDS011;55524;51.380;13.372;2023-07-13T07:10:29;5.05;;;1.52;;
68523;SDS011;55524;51.380;13.372;2023-07-13T07:12:59;10.02;;;1.63;;
68523;SDS011;55524;51.380;13.372;2023-07-13T07:15:26;2.78;;;1.20;;
68523;SDS011;55524;51.380;13.372;2023-07-13T07:17:55;3.22;;;1.35;;
68523;SDS011;55524;51.380;13.372;2023-07-13T07:20:42;1.75;;;1.20;;
68523;SDS011;55524;51.380;13.372;2023-07-13T07:23:17;11.63;;;2.00;;
68523;SDS011;55524;51.380;13.372;2023-07-13T07:25:44;11.25;;;2.17;;
68523;SDS011;55524;51.380;13.372;2023-07-13T07:28:30;7.43;;;1.63;;
68523;SDS011;55524;51.380;13.372;2023-07-13T07:31:37;2.88;;;1.20;;
68523;SDS011;55524;51.380;13.372;2023-07-13T07:34:04;4.75;;;1.20;;
68523;SDS011;55524;51.380;13.372;2023-07-13T07:36:31;8.90;;;1.45;;
68523;SDS011;55524;51.380;13.372;2023-07-13T07:39:00;5.22;;;1.15;;
68523;SDS011;55524;51.380;13.372;2023-07-13T07:41:27;2.28;;;1.30;;
68523;SDS011;55524;51.380;13.372;2023-07-13T07:43:53;5.47;;;1.33;;
68523;SDS011;55524;51.380;13.372;2023-07-13T07:46:19;3.85;;;1.30;;
68523;SDS011;55524;51.380;13.372;2023-07-13T07:48:45;3.42;;;1.25;;
68523;SDS011;55524;51.380;13.372;2023-07-13T07:51:12;3.50;;;1.20;;
68523;SDS011;55524;51.380;13.372;2023-07-13T07:53:38;2.08;;;1.20;;
68523;SDS011;55524;51.380;13.372;2023-07-13T07:56:04;2.78;;;1.35;;
68523;SDS011;55524;51.380;13.372;2023-07-13T07:58:31;3.85;;;1.30;;
68523;SDS011;55524;51.380;13.372;2023-07-13T08:01:06;3.90;;;1.40;;
68523;SDS011;55524;51.380;13.372;2023-07-13T08:03:33;4.13;;;1.30;;
68523;SDS011;55524;51.380;13.372;2023-07-13T08:05:59;4.65;;;1.55;;
68523;SDS011;55524;51.380;13.372;2023-07-13T08:08:26;4.38;;;1.65;;
68523;SDS011;55524;51.380;13.372;2023-07-13T08:10:52;5.20;;;1.20;;
68523;SDS011;55524;51.380;13.372;2023-07-13T08:13:19;3.85;;;1.42;;
68523;SDS011;55524;51.380;13.372;2023-07-13T08:15:48;4.22;;;1.20;;
68523;SDS011;55524;51.380;13.372;2023-07-13T08:18:15;2.28;;;1.27;;
68523;SDS011;55524;51.380;13.372;2023-07-13T08:20:41;4.10;;;1.17;;
68523;SDS011;55524;51.380;13.372;2023-07-13T08:23:09;3.30;;;1.40;;
68523;SDS011;55524;51.380;13.372;2023-07-13T08:25:36;4.30;;;1.40;;
68523;SDS011;55524;51.380;13.372;2023-07-13T08:28:03;3.20;;;1.50;;
68523;SDS011;55524;51.380;13.372;2023-07-13T08:30:29;6.65;;;1.92;;
68523;SDS011;55524;51.380;13.372;2023-07-13T08:32:56;4.75;;;1.50;;
68523;SDS011;55524;51.380;13.372;2023-07-13T08:35:25;4.45;;;1.20;;
68523;SDS011;55524;51.380;13.372;2023-07-13T08:37:52;2.92;;;1.30;;
68523;SDS011;55524;51.380;13.372;2023-07-13T08:40:18;2.13;;;1.20;;
68523;SDS011;55524;51.380;13.372;2023-07-13T08:42:52;6.47;;;1.45;;
68523;SDS011;55524;51.380;13.372;2023-07-13T08:47:57;4.32;;;1.30;;
68523;SDS011;55524;51.380;13.372;2023-07-13T08:50:35;8.93;;;1.55;;
68523;SDS011;55524;51.380;13.372;2023-07-13T08:53:13;2.78;;;1.23;;
68523;SDS011;55524;51.380;13.372;2023-07-13T08:55:43;3.10;;;1.30;;
68523;SDS011;55524;51.380;13.372;2023-07-13T08:58:13;1.83;;;1.20;;
68523;SDS011;55524;51.380;13.372;2023-07-13T09:03:23;3.28;;;1.23;;
68523;SDS011;55524;51.380;13.372;2023-07-13T09:05:58;1.92;;;1.13;;
68523;SDS011;55524;51.380;13.372;2023-07-13T09:13:46;1.73;;;1.00;;
68523;SDS011;55524;51.380;13.372;2023-07-13T09:16:20;2.72;;;1.20;;
68523;SDS011;55524;51.380;13.372;2023-07-13T09:18:48;0.95;;;0.93;;
68523;SDS011;55524;51.380;13.372;2023-07-13T09:21:18;2.40;;;1.02;;
68523;SDS011;55524;51.380;13.372;2023-07-13T09:24:22;2.45;;;1.48;;
68523;SDS011;55524;51.380;13.372;2023-07-13T09:27:00;2.97;;;1.20;;
68523;SDS011;55524;51.380;13.372;2023-07-13T09:29:35;8.90;;;1.55;;
68523;SDS011;55524;51.380;13.372;2023-07-13T09:32:09;1.75;;;1.25;;
68523;SDS011;55524;51.380;13.372;2023-07-13T09:34:37;2.78;;;1.33;;
68523;SDS011;55524;51.380;13.372;2023-07-13T09:37:03;2.92;;;1.30;;
68523;SDS011;55524;51.380;13.372;2023-07-13T09:39:38;1.80;;;1.33;;
68523;SDS011;55524;51.380;13.372;2023-07-13T09:42:22;7.45;;;1.65;;
68523;SDS011;55524;51.380;13.372;2023-07-13T09:44:54;6.28;;;1.65;;
68523;SDS011;55524;51.380;13.372;2023-07-13T09:47:29;5.30;;;1.52;;
68523;SDS011;55524;51.380;13.372;2023-07-13T09:50:08;2.38;;;1.40;;
68523;SDS011;55524;51.380;13.372;2023-07-13T09:52:46;5.07;;;1.70;;
68523;SDS011;55524;51.380;13.372;2023-07-13T09:55:24;4.70;;;1.58;;
68523;SDS011;55524;51.380;13.372;2023-07-13T09:57:56;3.60;;;1.38;;
68523;SDS011;55524;51.380;13.372;2023-07-13T10:00:24;4.03;;;1.40;;
68523;SDS011;55524;51.380;13.372;2023-07-13T10:05:28;8.48;;;1.73;;
68523;SDS011;55524;51.380;13.372;2023-07-13T10:08:04;3.60;;;1.33;;
68523;SDS011;55524;51.380;13.372;2023-07-13T10:10:32;2.60;;;1.20;;
68523;SDS011;55524;51.380;13.372;2023-07-13T10:13:01;6.30;;;1.30;;
68523;SDS011;55524;51.380;13.372;2023-07-13T10:15:30;3.20;;;1.30;;
68523;SDS011;55524;51.380;13.372;2023-07-13T10:17:57;2.42;;;1.20;;
68523;SDS011;55524;51.380;13.372;2023-07-13T10:20:24;3.45;;;0.93;;
68523;SDS011;55524;51.380;13.372;2023-07-13T10:25:31;2.42;;;0.95;;
68523;SDS011;55524;51.380;13.372;2023-07-13T10:28:37;2.05;;;1.02;;
68523;SDS011;55524;51.380;13.372;2023-07-13T10:31:09;4.78;;;1.38;;
68523;SDS011;55524;51.380;13.372;2023-07-13T10:33:39;4.28;;;1.00;;
68523;SDS011;55524;51.380;13.372;2023-07-13T10:39:00;1.90;;;1.00;;
68523;SDS011;55524;51.380;13.372;2023-07-13T10:41:50;2.80;;;1.00;;
68523;SDS011;55524;51.380;13.372;2023-07-13T10:44:22;2.42;;;1.00;;
68523;SDS011;55524;51.380;13.372;2023-07-13T10:46:57;2.45;;;0.93;;
68523;SDS011;55524;51.380;13.372;2023-07-13T10:49:26;2.25;;;1.00;;
68523;SDS011;55524;51.380;13.372;2023-07-13T10:51:54;2.28;;;1.00;;
68523;SDS011;55524;51.380;13.372;2023-07-13T10:54:22;1.42;;;0.90;;
68523;SDS011;55524;51.380;13.372;2023-07-13T10:59:49;3.70;;;0.95;;
68523;SDS011;55524;51.380;13.372;2023-07-13T11:02:37;1.83;;;1.10;;
68523;SDS011;55524;51.380;13.372;2023-07-13T11:08:11;4.88;;;0.93;;
68523;SDS011;55524;51.380;13.372;2023-07-13T11:10:54;4.72;;;1.10;;
68523;SDS011;55524;51.380;13.372;2023-07-13T11:18:50;5.63;;;1.20;;
68523;SDS011;55524;51.380;13.372;2023-07-13T11:21:33;1.48;;;0.90;;
68523;SDS011;55524;51.380;13.372;2023-07-13T11:24:16;2.22;;;1.02;;
68523;SDS011;55524;51.380;13.372;2023-07-13T11:26:51;3.88;;;1.02;;
68523;SDS011;55524;51.380;13.372;2023-07-13T11:31:54;3.58;;;1.15;;
68523;SDS011;55524;51.380;13.372;2023-07-13T11:34:36;4.78;;;1.00;;
68523;SDS011;55524;51.380;13.372;2023-07-13T11:37:08;2.00;;;1.08;;
68523;SDS011;55524;51.380;13.372;2023-07-13T11:39:41;2.90;;;1.10;;
68523;SDS011;55524;51.380;13.372;2023-07-13T11:42:10;3.42;;;1.08;;
68523;SDS011;55524;51.380;13.372;2023-07-13T11:44:57;5.15;;;1.15;;
68523;SDS011;55524;51.380;13.372;2023-07-13T11:47:25;3.20;;;1.00;;
68523;SDS011;55524;51.380;13.372;2023-07-13T11:49:56;2.60;;;1.10;;
68523;SDS011;55524;51.380;13.372;2023-07-13T11:52:23;3.03;;;1.23;;
68523;SDS011;55524;51.380;13.372;2023-07-13T11:55:03;6.28;;;1.05;;
68523;SDS011;55524;51.380;13.372;2023-07-13T11:57:57;4.13;;;1.02;;
68523;SDS011;55524;51.380;13.372;2023-07-13T12:02:57;6.65;;;1.17;;
68523;SDS011;55524;51.380;13.372;2023-07-13T12:05:26;2.63;;;0.98;;
68523;SDS011;55524;51.380;13.372;2023-07-13T12:07:59;3.80;;;1.08;;
68523;SDS011;55524;51.380;13.372;2023-07-13T12:10:36;8.18;;;1.30;;
68523;SDS011;55524;51.380;13.372;2023-07-13T12:13:03;3.22;;;1.10;;
68523;SDS011;55524;51.380;13.372;2023-07-13T12:21:41;6.47;;;1.35;;
68523;SDS011;55524;51.380;13.372;2023-07-13T12:24:17;6.20;;;1.00;;
68523;SDS011;55524;51.380;13.372;2023-07-13T12:26:50;1.88;;;0.98;;
68523;SDS011;55524;51.380;13.372;2023-07-13T12:29:18;3.65;;;1.05;;
68523;SDS011;55524;51.380;13.372;2023-07-13T12:31:45;5.85;;;1.27;;
68523;SDS011;55524;51.380;13.372;2023-07-13T12:34:14;1.52;;;0.90;;
68523;SDS011;55524;51.380;13.372;2023-07-13T12:42:10;5.97;;;1.10;;
68523;SDS011;55524;51.380;13.372;2023-07-13T12:44:50;2.50;;;1.00;;
68523;SDS011;55524;51.380;13.372;2023-07-13T12:47:49;2.83;;;1.13;;
68523;SDS011;55524;51.380;13.372;2023-07-13T12:50:20;5.07;;;1.05;;
68523;SDS011;55524;51.380;13.372;2023-07-13T12:52:51;2.35;;;1.00;;
68523;SDS011;55524;51.380;13.372;2023-07-13T12:55:20;2.33;;;1.00;;
68523;SDS011;55524;51.380;13.372;2023-07-13T13:00:25;1.50;;;1.00;;
68523;SDS011;55524;51.380;13.372;2023-07-13T13:02:58;4.22;;;1.13;;
68523;SDS011;55524;51.380;13.372;2023-07-13T13:05:30;3.90;;;1.00;;
68523;SDS011;55524;51.380;13.372;2023-07-13T13:07:58;6.75;;;1.00;;
68523;SDS011;55524;51.380;13.372;2023-07-13T13:10:25;3.53;;;1.23;;
68523;SDS011;55524;51.380;13.372;2023-07-13T13:12:52;3.55;;;0.90;;
68523;SDS011;55524;51.380;13.372;2023-07-13T13:15:18;2.92;;;1.30;;
68523;SDS011;55524;51.380;13.372;2023-07-13T13:17:47;6.07;;;1.23;;
68523;SDS011;55524;51.380;13.372;2023-07-13T13:20:17;1.50;;;0.90;;
68523;SDS011;55524;51.380;13.372;2023-07-13T13:22:44;1.25;;;0.90;;
68523;SDS011;55524;51.380;13.372;2023-07-13T13:25:11;3.03;;;0.95;;
68523;SDS011;55524;51.380;13.372;2023-07-13T13:27:40;2.13;;;0.90;;
68523;SDS011;55524;51.380;13.372;2023-07-13T13:30:15;4.00;;;1.10;;
68523;SDS011;55524;51.380;13.372;2023-07-13T13:32:43;6.63;;;1.00;;
68523;SDS011;55524;51.380;13.372;2023-07-13T13:35:15;3.80;;;0.98;;
68523;SDS011;55524;51.380;13.372;2023-07-13T13:37:43;4.43;;;0.80;;
68523;SDS011;55524;51.380;13.372;2023-07-13T13:40:14;4.78;;;1.10;;
68523;SDS011;55524;51.380;13.372;2023-07-13T13:42:48;4.18;;;0.88;;
68523;SDS011;55524;51.380;13.372;2023-07-13T13:45:16;4.80;;;1.00;;
68523;SDS011;55524;51.380;13.372;2023-07-13T13:47:43;2.33;;;0.80;;
68523;SDS011;55524;51.380;13.372;2023-07-13T13:50:13;4.70;;;0.80;;
68523;SDS011;55524;51.380;13.372;2023-07-13T13:52:41;3.60;;;0.90;;
68523;SDS011;55524;51.380;13.372;2023-07-13T13:55:12;2.20;;;0.80;;
68523;SDS011;55524;51.380;13.372;2023-07-13T13:57:44;1.52;;;0.80;;
68523;SDS011;55524;51.380;13.372;2023-07-13T14:00:12;2.20;;;0.85;;
68523;SDS011;55524;51.380;13.372;2023-07-13T14:02:44;5.00;;;0.98;;
68523;SDS011;55524;51.380;13.372;2023-07-13T14:05:13;3.70;;;1.10;;
68523;SDS011;55524;51.380;13.372;2023-07-13T14:07:44;9.38;;;1.00;;
68523;SDS011;55524;51.380;13.372;2023-07-13T14:10:12;5.05;;;0.93;;
68523;SDS011;55524;51.380;13.372;2023-07-13T14:12:41;1.33;;;0.80;;
68523;SDS011;55524;51.380;13.372;2023-07-13T14:15:30;4.45;;;0.73;;
68523;SDS011;55524;51.380;13.372;2023-07-13T14:17:56;2.88;;;0.85;;
68523;SDS011;55524;51.380;13.372;2023-07-13T14:20:23;4.88;;;1.48;;
68523;SDS011;55524;51.380;13.372;2023-07-13T14:22:51;3.72;;;0.93;;
68523;SDS011;55524;51.380;13.372;2023-07-13T14:25:18;1.70;;;0.77;;
68523;SDS011;55524;51.380;13.372;2023-07-13T14:27:46;4.15;;;0.75;;
68523;SDS011;55524;51.380;13.372;2023-07-13T14:30:19;4.07;;;0.90;;
68523;SDS011;55524;51.380;13.372;2023-07-13T14:32:47;1.17;;;0.73;;
68523;SDS011;55524;51.380;13.372;2023-07-13T14:35:14;2.15;;;0.60;;
68523;SDS011;55524;51.380;13.372;2023-07-13T14:37:43;2.55;;;0.70;;
68523;SDS011;55524;51.380;13.372;2023-07-13T14:42:38;3.85;;;0.90;;
68523;SDS011;55524;51.380;13.372;2023-07-13T14:45:05;4.13;;;1.10;;
68523;SDS011;55524;51.380;13.372;2023-07-13T14:47:37;2.63;;;2.13;;
68523;SDS011;55524;51.380;13.372;2023-07-13T14:50:04;6.43;;;3.25;;
68523;SDS011;55524;51.380;13.372;2023-07-13T14:52:36;4.88;;;3.58;;
68523;SDS011;55524;51.380;13.372;2023-07-13T14:55:04;4.80;;;3.33;;
68523;SDS011;55524;51.380;13.372;2023-07-13T14:57:35;13.25;;;3.85;;
68523;SDS011;55524;51.380;13.372;2023-07-13T15:00:01;11.02;;;3.22;;
68523;SDS011;55524;51.380;13.372;2023-07-13T15:02:29;7.05;;;2.85;;
68523;SDS011;55524;51.380;13.372;2023-07-13T15:05:00;2.60;;;2.40;;
68523;SDS011;55524;51.380;13.372;2023-07-13T15:07:27;4.72;;;2.17;;
68523;SDS011;55524;51.380;13.372;2023-07-13T15:09:53;2.10;;;1.90;;
68523;SDS011;55524;51.380;13.372;2023-07-13T15:12:19;11.10;;;1.63;;
68523;SDS011;55524;51.380;13.372;2023-07-13T15:14:46;3.58;;;1.40;;
68523;SDS011;55524;51.380;13.372;2023-07-13T15:17:31;16.63;;;3.25;;
68523;SDS011;55524;51.380;13.372;2023-07-13T15:22:38;1.80;;;1.20;;
68523;SDS011;55524;51.380;13.372;2023-07-13T15:25:07;0.95;;;0.70;;
68523;SDS011;55524;51.380;13.372;2023-07-13T15:27:42;4.07;;;0.90;;
68523;SDS011;55524;51.380;13.372;2023-07-13T15:30:08;5.55;;;1.00;;
68523;SDS011;55524;51.380;13.372;2023-07-13T15:32:35;5.30;;;0.65;;
68523;SDS011;55524;51.380;13.372;2023-07-13T15:35:01;4.18;;;0.80;;
68523;SDS011;55524;51.380;13.372;2023-07-13T15:37:28;3.35;;;0.60;;
68523;SDS011;55524;51.380;13.372;2023-07-13T15:39:55;1.55;;;0.80;;
68523;SDS011;55524;51.380;13.372;2023-07-13T15:42:22;1.48;;;0.75;;